createdAt,value
2022-08-10T00:02:10.970Z,96415.00
2022-08-10T00:06:13.867Z,96415.00
2022-08-10T00:10:18.732Z,96407.00
2022-08-10T00:14:21.627Z,96408.00
2022-08-10T00:18:34.582Z,96411.00
2022-08-10T00:22:38.357Z,96410.00
2022-08-10T00:27:52.570Z,96410.00
2022-08-10T00:31:22.875Z,96416.00
2022-08-10T00:35:27.133Z,96410.00
2022-08-10T00:39:36.090Z,96410.00
2022-08-10T00:43:39.348Z,96410.00
2022-08-10T00:47:42.187Z,96420.00
2022-08-10T00:51:48.906Z,96406.00
2022-08-10T00:57:14.485Z,96404.00
2022-08-10T01:00:15.161Z,96407.00
2022-08-10T01:04:57.309Z,96403.00
2022-08-10T01:08:52.498Z,96400.00
2022-08-10T01:13:01.999Z,96403.00
2022-08-10T01:17:12.399Z,96390.00
2022-08-10T01:21:56.708Z,96400.00
2022-08-10T01:26:30.558Z,96395.00
2022-08-10T01:30:37.164Z,96393.00
2022-08-10T01:34:50.448Z,96388.00
2022-08-10T01:38:55.076Z,96396.00
2022-08-10T01:43:07.933Z,96389.00
2022-08-10T01:47:33.758Z,96389.00
2022-08-10T01:51:41.220Z,96390.00
2022-08-10T01:55:44.796Z,96387.00
2022-08-10T02:00:00.656Z,96386.00
2022-08-10T02:04:12.986Z,96389.00
2022-08-10T02:08:18.767Z,96384.00
2022-08-10T02:12:25.443Z,96378.00
2022-08-10T02:16:29.426Z,96378.00
2022-08-10T02:20:36.646Z,96370.00
2022-08-10T02:24:42.023Z,96373.00
2022-08-10T02:28:45.520Z,96370.00
2022-08-10T02:32:52.684Z,96373.00
2022-08-10T02:36:59.231Z,96360.00
2022-08-10T02:45:14.851Z,96364.00
2022-08-10T02:45:40.178Z,96358.00
2022-08-10T02:49:44.668Z,96354.00
2022-08-10T02:53:57.118Z,96353.00
2022-08-10T02:58:12.680Z,96349.00
2022-08-10T03:02:27.510Z,96349.00
2022-08-10T03:06:36.041Z,96348.00
2022-08-10T03:10:43.192Z,96348.00
2022-08-10T03:14:46.962Z,96343.00
2022-08-10T03:18:50.860Z,96334.00
2022-08-10T03:22:56.317Z,96340.00
2022-08-10T03:27:00.935Z,96349.00
2022-08-10T03:31:04.262Z,96342.00
2022-08-10T03:35:09.012Z,96338.00
2022-08-10T03:39:12.190Z,96341.00
2022-08-10T03:43:20.701Z,96332.00
2022-08-10T03:47:25.884Z,96338.00
2022-08-10T03:51:29.094Z,96335.00
2022-08-10T03:56:29.360Z,96331.00
2022-08-10T03:59:57.097Z,96328.00
2022-08-10T04:04:11.744Z,96326.00
2022-08-10T04:08:17.669Z,96334.00
2022-08-10T04:12:20.508Z,96336.00
2022-08-10T04:16:24.655Z,96340.00
2022-08-10T04:20:35.010Z,96340.00
2022-08-10T04:24:40.157Z,96346.00
2022-08-10T04:28:43.735Z,96354.00
2022-08-10T04:32:51.054Z,96354.00
2022-08-10T04:36:57.956Z,96352.00
2022-08-10T04:41:02.238Z,96361.00
2022-08-10T04:45:11.779Z,96360.00
2022-08-10T04:49:54.987Z,96350.00
2022-08-10T04:54:04.631Z,96361.00
2022-08-10T04:58:01.519Z,96350.00
2022-08-10T05:02:30.215Z,96352.00
2022-08-10T05:06:28.616Z,96357.00
2022-08-10T05:10:31.371Z,96359.00
2022-08-10T05:14:34.185Z,96361.00
2022-08-10T05:18:37.000Z,96367.00
2022-08-10T05:22:42.341Z,96365.00
2022-08-10T05:26:57.206Z,96368.00
2022-08-10T05:31:08.232Z,96362.00
2022-08-10T05:35:11.048Z,96364.00
2022-08-10T05:39:16.113Z,96369.00
2022-08-10T05:43:20.449Z,96363.00
2022-08-10T05:47:23.515Z,96362.00
2022-08-10T05:51:27.384Z,96361.00
2022-08-10T05:55:32.409Z,96356.00
2022-08-10T06:00:35.542Z,96359.00
2022-08-10T06:04:01.138Z,96351.00
2022-08-10T06:08:08.627Z,96349.00
2022-08-10T06:12:27.803Z,96352.00
2022-08-10T06:16:34.912Z,96341.00
2022-08-10T06:20:39.284Z,96342.00
2022-08-10T06:25:12.239Z,96342.00
2022-08-10T06:29:10.867Z,96339.00
2022-08-10T06:33:14.192Z,96344.00
2022-08-10T06:37:20.225Z,96334.00
2022-08-10T06:41:57.704Z,96342.00
2022-08-10T06:46:07.305Z,96335.00
2022-08-10T06:50:34.459Z,96346.00
2022-08-10T06:54:41.562Z,96348.00
2022-08-10T06:58:50.972Z,96345.00
2022-08-10T07:02:58.166Z,96347.00
2022-08-10T07:07:03.376Z,96352.00
2022-08-10T07:11:11.473Z,96344.00
2022-08-10T07:15:17.289Z,96351.00
2022-08-10T07:19:23.294Z,96349.00
2022-08-10T07:23:57.443Z,96346.00
2022-08-10T07:27:58.607Z,96347.00
2022-08-10T07:32:05.229Z,96338.00
2022-08-10T07:36:11.168Z,96345.00
2022-08-10T07:40:16.004Z,96345.00
2022-08-10T07:44:20.340Z,96351.00
2022-08-10T07:48:27.332Z,96354.00
2022-08-10T07:52:35.126Z,96345.00
2022-08-10T07:56:48.813Z,96339.00
2022-08-10T08:00:53.986Z,96335.00
2022-08-10T08:05:01.647Z,96343.00
2022-08-10T08:09:06.622Z,96333.00
2022-08-10T08:13:09.986Z,96338.00
2022-08-10T08:17:17.761Z,96332.00
2022-08-10T08:24:05.947Z,96349.00
2022-08-10T08:25:47.041Z,96341.00
2022-08-10T08:29:52.070Z,96346.00
2022-08-10T08:33:57.023Z,96334.00
2022-08-10T08:38:33.738Z,96334.00
2022-08-10T08:42:51.544Z,96336.00
2022-08-10T08:48:01.059Z,96331.00
2022-08-10T08:52:08.255Z,96333.00
2022-08-10T08:56:15.450Z,96343.00
2022-08-10T09:00:31.095Z,96325.00
2022-08-10T09:05:00.498Z,96312.00
2022-08-10T09:09:38.353Z,96315.00
2022-08-10T09:13:45.275Z,96308.00
2022-08-10T09:17:56.106Z,96312.00
2022-08-10T09:22:18.368Z,96307.00
2022-08-10T09:26:26.673Z,96300.00
2022-08-10T09:30:34.775Z,96310.00
2022-08-10T09:36:27.764Z,96312.00
2022-08-10T09:40:56.459Z,96311.00
2022-08-10T09:43:59.933Z,96311.00
2022-08-10T09:48:10.319Z,96314.00
2022-08-10T09:52:22.664Z,96314.00
2022-08-10T09:56:33.372Z,96308.00
2022-08-10T10:00:41.624Z,96313.00
2022-08-10T10:04:52.260Z,96308.00
2022-08-10T10:09:10.531Z,96306.00
2022-08-10T10:13:50.069Z,96296.00
2022-08-10T10:17:59.398Z,96305.00
2022-08-10T10:22:14.108Z,96291.00
2022-08-10T10:26:25.155Z,96301.00
2022-08-10T10:30:36.438Z,96295.00
2022-08-10T10:34:49.319Z,96300.00
2022-08-10T10:38:54.442Z,96292.00
2022-08-10T10:43:06.524Z,96289.00
2022-08-10T10:47:20.562Z,96289.00
2022-08-10T10:51:29.518Z,96296.00
2022-08-10T10:56:13.511Z,96288.00
2022-08-10T11:00:11.359Z,96304.00
2022-08-10T11:04:21.965Z,96292.00
2022-08-10T11:08:29.032Z,96307.00
2022-08-10T11:12:39.910Z,96303.00
2022-08-10T11:16:57.329Z,96301.00
2022-08-10T11:21:11.855Z,96314.00
2022-08-10T11:25:23.714Z,96333.00
2022-08-10T11:29:33.230Z,96320.00
2022-08-10T11:34:03.992Z,96330.00
2022-08-10T11:38:30.961Z,96334.00
2022-08-10T11:42:42.879Z,96324.00
2022-08-10T11:46:54.386Z,96312.00
2022-08-10T11:51:00.824Z,96311.00
2022-08-10T11:55:10.949Z,96303.00
2022-08-10T11:59:35.447Z,96316.00
2022-08-10T12:03:39.814Z,96323.00
2022-08-10T12:10:07.578Z,96319.00
2022-08-10T12:12:11.451Z,96312.00
2022-08-10T12:16:19.514Z,96297.00
2022-08-10T12:20:29.901Z,96296.00
2022-08-10T12:24:38.517Z,96297.00
2022-08-10T12:28:51.872Z,96281.00
2022-08-10T12:33:03.252Z,96277.00
2022-08-10T12:37:15.742Z,96274.00
2022-08-10T12:41:43.599Z,96285.00
2022-08-10T12:45:56.938Z,96271.00
2022-08-10T12:50:30.042Z,96259.00
2022-08-10T12:54:36.647Z,96288.00
2022-08-10T12:58:58.689Z,96288.00
2022-08-10T13:03:07.220Z,96265.00
2022-08-10T13:08:25.612Z,96261.00
2022-08-10T13:12:44.405Z,96262.00
2022-08-10T13:15:59.692Z,96259.00
2022-08-10T13:20:14.271Z,96276.00
2022-08-10T13:24:19.064Z,96258.00
2022-08-10T13:28:36.039Z,96267.00
2022-08-10T13:32:52.194Z,96276.00
2022-08-10T13:36:58.126Z,96278.00
2022-08-10T13:41:02.323Z,96267.00
2022-08-10T13:45:10.899Z,96265.00
2022-08-10T13:49:16.112Z,96264.00
2022-08-10T13:53:19.913Z,96267.00
2022-08-10T13:57:26.009Z,96270.00
2022-08-10T14:01:31.497Z,96264.00
2022-08-10T14:05:39.583Z,96265.00
2022-08-10T14:09:43.782Z,96263.00
2022-08-10T14:13:52.995Z,96270.00
2022-08-10T14:17:58.559Z,96270.00
2022-08-10T14:22:03.249Z,96269.00
2022-08-10T14:26:09.389Z,96273.00
2022-08-10T14:30:17.920Z,96270.00
2022-08-10T14:34:21.462Z,96261.00
2022-08-10T14:38:46.333Z,96260.00
2022-08-10T14:42:53.647Z,96252.00
2022-08-10T14:47:02.115Z,96256.00
2022-08-10T14:51:10.102Z,96259.00
2022-08-10T14:55:19.300Z,96245.00
2022-08-10T14:59:45.871Z,96248.00
2022-08-10T15:03:58.654Z,96235.00
2022-08-10T15:08:03.602Z,96245.00
2022-08-10T15:12:15.460Z,96251.00
2022-08-10T15:16:20.780Z,96248.00
2022-08-10T15:20:27.423Z,96252.00
2022-08-10T15:24:50.090Z,96244.00
2022-08-10T15:29:23.083Z,96239.00
2022-08-10T15:34:03.202Z,96243.00
2022-08-10T15:38:09.162Z,96229.00
2022-08-10T15:42:19.889Z,96232.00
2022-08-10T15:46:33.701Z,96229.00
2022-08-10T15:50:40.965Z,96219.00
2022-08-10T15:54:54.562Z,96216.00
2022-08-10T15:59:08.275Z,96207.00
2022-08-10T16:03:18.094Z,96211.00
2022-08-10T16:07:22.767Z,96210.00
2022-08-10T16:11:55.081Z,96209.00
2022-08-10T16:16:01.757Z,96201.00
2022-08-10T16:20:09.449Z,96207.00
2022-08-10T16:24:16.316Z,96209.00
2022-08-10T16:28:23.899Z,96207.00
2022-08-10T16:32:28.259Z,96198.00
2022-08-10T16:36:39.049Z,96189.00
2022-08-10T16:40:44.378Z,96195.00
2022-08-10T16:44:53.691Z,96186.00
2022-08-10T16:48:59.987Z,96187.00
2022-08-10T16:53:07.453Z,96184.00
2022-08-10T16:57:12.054Z,96178.00
2022-08-10T17:01:19.477Z,96182.00
2022-08-10T17:06:01.813Z,96181.00
2022-08-10T17:09:51.990Z,96194.00
2022-08-10T17:13:56.948Z,96191.00
2022-08-10T17:18:01.788Z,96187.00
2022-08-10T17:22:11.629Z,96178.00
2022-08-10T17:26:18.659Z,96184.00
2022-08-10T17:30:34.016Z,96186.00
2022-08-10T17:34:40.938Z,96190.00
2022-08-10T17:38:49.699Z,96181.00
2022-08-10T17:42:55.715Z,96175.00
2022-08-10T17:47:00.878Z,96188.00
2022-08-10T17:51:16.831Z,96186.00
2022-08-10T17:55:21.089Z,96175.00
2022-08-10T17:59:31.878Z,96193.00
2022-08-10T18:03:36.866Z,96187.00
2022-08-10T18:07:45.460Z,96195.00
2022-08-10T18:11:51.138Z,96201.00
2022-08-10T18:15:57.187Z,96198.00
2022-08-10T18:20:02.879Z,96211.00
2022-08-10T18:24:15.665Z,96195.00
2022-08-10T18:28:20.978Z,96210.00
2022-08-10T18:32:26.981Z,96216.00
2022-08-10T18:36:31.422Z,96215.00
2022-08-10T18:40:36.309Z,96230.00
2022-08-10T18:44:44.352Z,96228.00
2022-08-10T18:48:54.115Z,96233.00
2022-08-10T18:53:01.315Z,96233.00
2022-08-10T18:57:13.976Z,96239.00
2022-08-10T19:01:34.994Z,96247.00
2022-08-10T19:05:57.868Z,96251.00
2022-08-10T19:10:10.601Z,96246.00
2022-08-10T19:14:17.357Z,96243.00
2022-08-10T19:18:32.819Z,96239.00
2022-08-10T19:22:48.170Z,96245.00
2022-08-10T19:26:58.182Z,96248.00
2022-08-10T19:31:08.278Z,96240.00
2022-08-10T19:35:17.514Z,96247.00
2022-08-10T19:39:29.874Z,96245.00
2022-08-10T19:44:00.424Z,96248.00
2022-08-10T19:48:19.770Z,96257.00
2022-08-10T19:52:31.530Z,96255.00
2022-08-10T19:56:47.669Z,96253.00
2022-08-10T20:00:57.396Z,96252.00
2022-08-10T20:05:07.062Z,96247.00
2022-08-10T20:09:20.719Z,96254.00
2022-08-10T20:13:34.806Z,96250.00
2022-08-10T20:17:51.011Z,96248.00
2022-08-10T20:22:01.225Z,96245.00
2022-08-10T20:26:11.825Z,96249.00
2022-08-10T20:30:16.830Z,96244.00
2022-08-10T20:34:23.194Z,96252.00
2022-08-10T20:38:33.447Z,96238.00
2022-08-10T20:42:41.342Z,96233.00
2022-08-10T20:47:00.316Z,96231.00
2022-08-10T20:51:07.766Z,96229.00
2022-08-10T20:55:12.563Z,96232.00
2022-08-10T20:59:37.834Z,96229.00
2022-08-10T21:04:29.787Z,96216.00
2022-08-10T21:08:47.603Z,96220.00
2022-08-10T21:13:14.058Z,96208.00
2022-08-10T21:17:37.408Z,96205.00
2022-08-10T21:21:59.395Z,96218.00
2022-08-10T21:26:08.111Z,96219.00
2022-08-10T21:30:13.725Z,96219.00
2022-08-10T21:34:35.121Z,96219.00
2022-08-10T21:38:52.103Z,96228.00
2022-08-10T21:43:44.658Z,96217.00
2022-08-10T21:48:29.906Z,96214.00
2022-08-10T21:53:03.863Z,96211.00
2022-08-10T22:02:17.607Z,96212.00
2022-08-10T22:06:52.643Z,96204.00
2022-08-10T22:11:16.406Z,96208.00
2022-08-10T22:16:03.286Z,96192.00
2022-08-10T22:20:27.139Z,96194.00
2022-08-10T22:25:02.780Z,96186.00
2022-08-10T22:29:42.704Z,96187.00
2022-08-10T22:31:25.594Z,96205.00
2022-08-10T22:34:15.807Z,96181.00
2022-08-10T22:38:45.267Z,96176.00
2022-08-10T22:43:12.225Z,96185.00
2022-08-10T22:47:38.418Z,96179.00
2022-08-10T22:51:52.556Z,96172.00
2022-08-10T22:56:15.207Z,96172.00
2022-08-10T23:00:20.049Z,96168.00
2022-08-10T23:04:45.033Z,96172.00
2022-08-10T23:08:52.511Z,96176.00
2022-08-10T23:12:59.236Z,96162.00
2022-08-10T23:17:21.502Z,96157.00
2022-08-10T23:22:02.797Z,96161.00
2022-08-10T23:25:58.327Z,96150.00
2022-08-10T23:30:10.151Z,96159.00
2022-08-10T23:34:15.351Z,96149.00
2022-08-10T23:38:22.738Z,96149.00
2022-08-10T23:42:37.334Z,96146.00
2022-08-10T23:46:42.945Z,96146.00
2022-08-10T23:50:52.312Z,96146.00
2022-08-10T23:55:05.975Z,96141.00
2022-08-10T23:59:16.415Z,96144.00
